createdAt,value
2018-09-17T00:00:29.201Z,100561.00
2018-09-17T00:05:32.465Z,100558.00
2018-09-17T00:10:35.506Z,100560.00
2018-09-17T00:15:39.078Z,100551.00
2018-09-17T00:20:43.067Z,100542.00
2018-09-17T00:25:46.124Z,100546.00
2018-09-17T00:30:49.314Z,100550.00
2018-09-17T00:35:52.395Z,100552.00
2018-09-17T00:40:55.657Z,100555.00
2018-09-17T00:45:58.721Z,100555.00
2018-09-17T00:51:03.499Z,100539.00
2018-09-17T00:56:06.808Z,100554.00
2018-09-17T01:01:10.025Z,100549.00
2018-09-17T01:06:13.132Z,100561.00
2018-09-17T01:11:16.552Z,100558.00
2018-09-17T01:16:19.796Z,100555.00
2018-09-17T01:21:23.059Z,100558.00
2018-09-17T01:26:26.165Z,100549.00
2018-09-17T01:31:29.675Z,100554.00
2018-09-17T01:36:32.837Z,100557.00
2018-09-17T01:41:35.953Z,100552.00
2018-09-17T01:46:39.431Z,100569.00
2018-09-17T01:51:42.568Z,100560.00
2018-09-17T01:56:45.675Z,100567.00
2018-09-17T02:01:49.027Z,100564.00
2018-09-17T02:06:52.163Z,100567.00
2018-09-17T02:11:55.209Z,100564.00
2018-09-17T02:16:58.371Z,100570.00
2018-09-17T02:22:05.050Z,100575.00
2018-09-17T02:27:08.309Z,100579.00
2018-09-17T02:32:11.429Z,100586.00
2018-09-17T02:37:14.493Z,100575.00
2018-09-17T02:42:17.769Z,100581.00
2018-09-17T02:47:21.005Z,100580.00
2018-09-17T02:52:24.233Z,100579.00
2018-09-17T02:57:27.320Z,100590.00
2018-09-17T03:02:30.680Z,100595.00
2018-09-17T03:07:33.860Z,100588.00
2018-09-17T03:12:37.533Z,100588.00
2018-09-17T03:17:40.964Z,100592.00
2018-09-17T03:22:44.036Z,100606.00
2018-09-17T03:27:47.145Z,100600.00
2018-09-17T03:32:50.248Z,100590.00
2018-09-17T03:37:53.519Z,100596.00
2018-09-17T03:42:56.643Z,100595.00
2018-09-17T03:47:59.811Z,100596.00
2018-09-17T03:53:04.131Z,100594.00
2018-09-17T03:58:07.218Z,100587.00
2018-09-17T04:03:10.572Z,100586.00
2018-09-17T04:08:13.968Z,100582.00
2018-09-17T04:13:17.347Z,100587.00
2018-09-17T04:18:20.431Z,100597.00
2018-09-17T04:23:28.915Z,100605.00
2018-09-17T04:28:32.945Z,100526.00
2018-09-17T04:33:38.555Z,100613.00
2018-09-17T04:38:42.172Z,100608.00
2018-09-17T04:43:45.738Z,100619.00
2018-09-17T04:48:48.891Z,100616.00
2018-09-17T04:53:52.003Z,100610.00
2018-09-17T04:58:55.267Z,100612.00
2018-09-17T05:03:58.581Z,100629.00
2018-09-17T05:09:04.547Z,100624.00
2018-09-17T05:14:07.914Z,100632.00
2018-09-17T05:19:11.122Z,100634.00
2018-09-17T05:24:14.253Z,100613.00
2018-09-17T05:29:17.358Z,100633.00
2018-09-17T05:34:20.449Z,100648.00
2018-09-17T05:39:23.554Z,100656.00
2018-09-17T05:44:26.736Z,100668.00
2018-09-17T05:49:29.812Z,100680.00
2018-09-17T05:54:32.835Z,100700.00
2018-09-17T05:59:36.398Z,100705.00
2018-09-17T06:04:40.488Z,100711.00
2018-09-17T06:09:43.676Z,100714.00
2018-09-17T06:14:46.743Z,100724.00
2018-09-17T06:19:49.720Z,100735.00
2018-09-17T06:30:38.761Z,100735.00
2018-09-17T06:35:41.949Z,100740.00
2018-09-17T06:40:44.940Z,100746.00
2018-09-17T06:45:48.117Z,100752.00
2018-09-17T06:50:51.095Z,100747.00
2018-09-17T06:55:54.260Z,100755.00
2018-09-17T07:00:57.302Z,100758.00
2018-09-17T07:06:00.276Z,100761.00
2018-09-17T07:11:05.117Z,100757.00
2018-09-17T07:16:08.417Z,100754.00
2018-09-17T07:21:11.386Z,100753.00
2018-09-17T07:26:14.841Z,100751.00
2018-09-17T07:31:17.803Z,100754.00
2018-09-17T07:36:20.831Z,100755.00
2018-09-17T07:41:23.980Z,100759.00
2018-09-17T07:46:27.755Z,100748.00
2018-09-17T07:51:30.756Z,100759.00
2018-09-17T07:56:33.977Z,100776.00
2018-09-17T08:01:37.173Z,100756.00
2018-09-17T08:06:40.181Z,100750.00
2018-09-17T08:11:43.735Z,100756.00
2018-09-17T08:16:46.735Z,100752.00
2018-09-17T08:21:49.799Z,100760.00
2018-09-17T08:26:52.744Z,100754.00
2018-09-17T08:31:55.736Z,100758.00
2018-09-17T08:36:58.980Z,100754.00
2018-09-17T08:42:02.717Z,100771.00
2018-09-17T08:47:05.781Z,100771.00
2018-09-17T08:52:08.813Z,100759.00
2018-09-17T08:57:17.599Z,100767.00
2018-09-17T09:03:27.231Z,100769.00
2018-09-17T09:08:30.204Z,100762.00
2018-09-17T09:13:33.268Z,100753.00
2018-09-17T09:18:36.272Z,100753.00
2018-09-17T09:23:39.354Z,100747.00
2018-09-17T09:28:42.347Z,100737.00
2018-09-17T09:33:45.335Z,100727.00
2018-09-17T09:38:48.337Z,100719.00
2018-09-17T09:43:51.618Z,100719.00
2018-09-17T09:48:54.583Z,100715.00
2018-09-17T09:53:57.772Z,100707.00
2018-09-17T09:59:02.689Z,100698.00
2018-09-17T10:04:11.504Z,100691.00
2018-09-17T10:09:20.208Z,100686.00
2018-09-17T10:14:28.895Z,100695.00
2018-09-17T10:19:32.112Z,100696.00
2018-09-17T10:24:35.556Z,100696.00
2018-09-17T10:29:38.627Z,100682.00
2018-09-17T10:34:41.912Z,100678.00
2018-09-17T10:39:44.867Z,100675.00
2018-09-17T10:44:48.140Z,100683.00
2018-09-17T10:49:51.142Z,100673.00
2018-09-17T10:54:54.164Z,100667.00
2018-09-17T10:59:57.194Z,100665.00
2018-09-17T11:05:00.153Z,100658.00
2018-09-17T11:10:05.615Z,100648.00
2018-09-17T11:15:08.636Z,100651.00
2018-09-17T11:20:11.613Z,100642.00
2018-09-17T11:25:14.687Z,100637.00
2018-09-17T11:30:17.754Z,100636.00
2018-09-17T11:35:20.741Z,100628.00
2018-09-17T11:40:23.932Z,100629.00
2018-09-17T11:45:26.927Z,100637.00
2018-09-17T11:50:30.233Z,100629.00
2018-09-17T11:55:33.370Z,100624.00
2018-09-17T12:00:42.059Z,100627.00
2018-09-17T12:05:50.842Z,100619.00
2018-09-17T12:10:53.844Z,100617.00
2018-09-17T12:15:56.969Z,100602.00
2018-09-17T12:21:00.313Z,100604.00
2018-09-17T12:26:03.856Z,100603.00
2018-09-17T12:31:07.122Z,100596.00
2018-09-17T12:36:10.201Z,100599.00
2018-09-17T12:41:13.227Z,100588.00
2018-09-17T12:46:16.287Z,100588.00
2018-09-17T12:51:19.435Z,100595.00
2018-09-17T12:56:22.604Z,100586.00
2018-09-17T13:01:25.605Z,100580.00
2018-09-17T13:06:28.616Z,100569.00
2018-09-17T13:11:31.692Z,100563.00
2018-09-17T13:16:37.183Z,100563.00
2018-09-17T13:21:40.180Z,100564.00
2018-09-17T13:26:43.224Z,100557.00
2018-09-17T13:31:46.237Z,100550.00
2018-09-17T13:36:49.747Z,100536.00
2018-09-17T13:41:52.871Z,100534.00
2018-09-17T13:46:55.851Z,100530.00
2018-09-17T13:51:58.944Z,100529.00
2018-09-17T13:57:03.649Z,100522.00
2018-09-17T14:02:06.867Z,100511.00
2018-09-17T14:07:10.303Z,100513.00
2018-09-17T14:12:13.572Z,100500.00
2018-09-17T14:17:16.639Z,100497.00
2018-09-17T14:22:19.830Z,100492.00
2018-09-17T14:27:23.158Z,100492.00
2018-09-17T14:32:31.891Z,100486.00
2018-09-17T14:37:35.135Z,100479.00
2018-09-17T14:42:38.537Z,100470.00
2018-09-17T14:47:41.746Z,100470.00
2018-09-17T14:52:44.969Z,100461.00
2018-09-17T14:57:48.168Z,100463.00
2018-09-17T15:02:51.503Z,100456.00
2018-09-17T15:07:54.903Z,100446.00
2018-09-17T15:12:58.255Z,100444.00
2018-09-17T15:18:04.217Z,100441.00
2018-09-17T15:23:07.469Z,100432.00
2018-09-17T15:28:10.720Z,100431.00
2018-09-17T15:33:14.122Z,100433.00
2018-09-17T15:38:17.409Z,100430.00
2018-09-17T15:43:20.541Z,100417.00
2018-09-17T15:48:23.814Z,100417.00
2018-09-17T15:53:27.082Z,100407.00
2018-09-17T15:58:30.500Z,100409.00
2018-09-17T16:03:33.666Z,100409.00
2018-09-17T16:08:36.880Z,100404.00
2018-09-17T16:13:40.044Z,100398.00
2018-09-17T16:18:43.287Z,100396.00
2018-09-17T16:23:46.426Z,100405.00
2018-09-17T16:28:49.806Z,100398.00
2018-09-17T16:33:53.021Z,100394.00
2018-09-17T16:38:56.200Z,100392.00
2018-09-17T16:43:59.476Z,100393.00
2018-09-17T16:49:03.600Z,100381.00
2018-09-17T16:54:06.792Z,100380.00
2018-09-17T17:04:19.156Z,100371.00
2018-09-17T17:09:22.191Z,100364.00
2018-09-17T17:14:25.190Z,100352.00
2018-09-17T17:19:28.294Z,100347.00
2018-09-17T17:24:31.289Z,100337.00
2018-09-17T17:29:34.363Z,100326.00
2018-09-17T17:34:37.598Z,100333.00
2018-09-17T17:39:40.690Z,100332.00
2018-09-17T17:44:43.667Z,100310.00
2018-09-17T17:49:46.738Z,100314.00
2018-09-17T17:54:50.703Z,100321.00
2018-09-17T17:59:53.768Z,100301.00
2018-09-17T18:04:56.828Z,100298.00
2018-09-17T18:09:59.955Z,100298.00
2018-09-17T18:15:05.361Z,100284.00
2018-09-17T18:20:08.589Z,100288.00
2018-09-17T18:25:11.645Z,100289.00
2018-09-17T18:30:14.680Z,100290.00
2018-09-17T18:35:17.881Z,100283.00
2018-09-17T18:40:20.959Z,100285.00
2018-09-17T18:45:24.051Z,100279.00
2018-09-17T18:50:27.047Z,100279.00
2018-09-17T18:55:30.211Z,100285.00
2018-09-17T19:00:33.243Z,100288.00
2018-09-17T19:05:36.764Z,100286.00
2018-09-17T19:10:39.812Z,100288.00
2018-09-17T19:15:51.686Z,100283.00
2018-09-17T19:20:55.140Z,100285.00
2018-09-17T19:25:57.975Z,100280.00
2018-09-17T19:31:01.124Z,100287.00
2018-09-17T19:36:04.864Z,100282.00
2018-09-17T19:41:08.181Z,100280.00
2018-09-17T19:46:18.842Z,100280.00
2018-09-17T19:51:27.417Z,100275.00
2018-09-17T19:56:30.562Z,100270.00
2018-09-17T20:01:33.827Z,100272.00
2018-09-17T20:06:36.931Z,100270.00
2018-09-17T20:11:40.188Z,100255.00
2018-09-17T20:16:43.323Z,100259.00
2018-09-17T20:21:46.493Z,100252.00
2018-09-17T20:26:50.168Z,100248.00
2018-09-17T20:31:53.436Z,100244.00
2018-09-17T20:36:56.664Z,100250.00
2018-09-17T20:41:59.923Z,100247.00
2018-09-17T20:47:04.970Z,100247.00
2018-09-17T20:52:08.066Z,100247.00
2018-09-17T20:57:11.055Z,100245.00
2018-09-17T21:02:14.067Z,100245.00
2018-09-17T21:07:17.139Z,100246.00
2018-09-17T21:12:20.168Z,100237.00
2018-09-17T21:17:23.197Z,100239.00
2018-09-17T21:22:26.264Z,100237.00
2018-09-17T21:27:29.244Z,100232.00
2018-09-17T21:32:32.771Z,100236.00
2018-09-17T21:37:35.950Z,100223.00
2018-09-17T21:42:38.923Z,100219.00
2018-09-17T21:47:41.959Z,100213.00
2018-09-17T21:52:44.971Z,100217.00
2018-09-17T21:57:47.957Z,100208.00
2018-09-17T22:02:51.050Z,100209.00
2018-09-17T22:07:54.034Z,100217.00
2018-09-17T22:12:57.082Z,100213.00
2018-09-17T22:18:00.160Z,100214.00
2018-09-17T22:23:04.804Z,100223.00
2018-09-17T22:28:08.123Z,100213.00
2018-09-17T22:33:11.078Z,100208.00
2018-09-17T22:38:14.079Z,100205.00
2018-09-17T22:43:17.054Z,100210.00
2018-09-17T22:48:20.060Z,100207.00
2018-09-17T22:53:23.220Z,100200.00
2018-09-17T22:58:26.325Z,100198.00
2018-09-17T23:03:29.330Z,100203.00
2018-09-17T23:08:32.326Z,100208.00
2018-09-17T23:13:35.510Z,100207.00
2018-09-17T23:18:38.470Z,100200.00
2018-09-17T23:23:41.431Z,100210.00
2018-09-17T23:28:44.419Z,100207.00
2018-09-17T23:33:47.422Z,100208.00
2018-09-17T23:38:50.396Z,100199.00
2018-09-17T23:43:53.364Z,100203.00
2018-09-17T23:48:56.343Z,100194.00
2018-09-17T23:53:59.472Z,100194.00
2018-09-17T23:59:04.448Z,100203.00
